sensor_id;sensor_type;location;lat;lon;timestamp;pressure;altitude;pressure_sealevel;temperature;humidity
7018;BME280;3549;42.162;24.726;2023-04-26T00:02:13;47617.09;;;-141.97;100.00
7018;BME280;3549;42.162;24.726;2023-04-26T00:04:40;47711.28;;;-141.97;100.00
7018;BME280;3549;42.162;24.726;2023-04-26T00:07:06;47699.75;;;-141.97;100.00
7018;BME280;3549;42.162;24.726;2023-04-26T00:09:32;47669.00;;;-141.97;100.00
7018;BME280;3549;42.162;24.726;2023-04-26T00:11:58;47682.47;;;-141.97;100.00
7018;BME280;3549;42.162;24.726;2023-04-26T00:14:24;47815.09;;;-141.97;100.00
7018;BME280;3549;42.162;24.726;2023-04-26T00:16:49;47657.47;;;-141.97;100.00
7018;BME280;3549;42.162;24.726;2023-04-26T00:19:14;47651.69;;;-141.97;100.00
7018;BME280;3549;42.162;24.726;2023-04-26T00:21:40;47669.00;;;-141.97;100.00
7018;BME280;3549;42.162;24.726;2023-04-26T00:24:06;47722.81;;;-141.97;100.00
7018;BME280;3549;42.162;24.726;2023-04-26T00:26:32;47711.28;;;-141.97;100.00
7018;BME280;3549;42.162;24.726;2023-04-26T00:28:59;47726.66;;;-141.97;100.00
7018;BME280;3549;42.162;24.726;2023-04-26T00:31:24;47717.06;;;-141.97;100.00
7018;BME280;3549;42.162;24.726;2023-04-26T00:33:50;47672.84;;;-141.97;100.00
7018;BME280;3549;42.162;24.726;2023-04-26T00:36:15;47711.28;;;-141.97;100.00
7018;BME280;3549;42.162;24.726;2023-04-26T00:38:47;47703.59;;;-141.97;100.00
7018;BME280;3549;42.162;24.726;2023-04-26T00:41:13;47692.06;;;-141.97;100.00
7018;BME280;3549;42.162;24.726;2023-04-26T00:43:39;47695.91;;;-141.97;100.00
7018;BME280;3549;42.162;24.726;2023-04-26T00:46:06;47653.63;;;-141.97;100.00
7018;BME280;3549;42.162;24.726;2023-04-26T00:48:33;47707.44;;;-141.97;100.00
7018;BME280;3549;42.162;24.726;2023-04-26T00:51:00;47717.06;;;-141.97;100.00
7018;BME280;3549;42.162;24.726;2023-04-26T00:53:25;47672.84;;;-141.97;100.00
7018;BME280;3549;42.162;24.726;2023-04-26T00:55:51;47697.84;;;-141.97;100.00
7018;BME280;3549;42.162;24.726;2023-04-26T00:58:17;47684.38;;;-141.97;100.00
7018;BME280;3549;42.162;24.726;2023-04-26T01:00:43;47657.47;;;-141.97;99.90
7018;BME280;3549;42.162;24.726;2023-04-26T01:03:09;47684.38;;;-141.97;99.56
7018;BME280;3549;42.162;24.726;2023-04-26T01:05:35;47640.16;;;-141.97;99.32
7018;BME280;3549;42.162;24.726;2023-04-26T01:08:01;47672.84;;;-141.97;100.00
7018;BME280;3549;42.162;24.726;2023-04-26T01:10:30;47667.06;;;-141.97;99.70
7018;BME280;3549;42.162;24.726;2023-04-26T01:12:56;47690.16;;;-141.97;98.66
7018;BME280;3549;42.162;24.726;2023-04-26T01:15:22;47730.50;;;-141.97;97.65
7018;BME280;3549;42.162;24.726;2023-04-26T01:17:48;47684.38;;;-141.97;97.16
7018;BME280;3549;42.162;24.726;2023-04-26T01:20:14;47628.63;;;-141.97;96.12
7018;BME280;3549;42.162;24.726;2023-04-26T01:22:40;47678.63;;;-141.97;96.96
7018;BME280;3549;42.162;24.726;2023-04-26T01:25:10;47699.75;;;-141.97;97.03
7018;BME280;3549;42.162;24.726;2023-04-26T01:27:36;47688.22;;;-141.97;97.07
7018;BME280;3549;42.162;24.726;2023-04-26T01:30:02;47688.22;;;-141.97;96.49
7018;BME280;3549;42.162;24.726;2023-04-26T01:32:28;47657.47;;;-141.97;95.94
7018;BME280;3549;42.162;24.726;2023-04-26T01:34:53;47703.59;;;-141.97;95.79
7018;BME280;3549;42.162;24.726;2023-04-26T01:37:19;47817.00;;;-141.97;95.37
7018;BME280;3549;42.162;24.726;2023-04-26T01:39:44;47684.38;;;-141.97;95.58
7018;BME280;3549;42.162;24.726;2023-04-26T01:42:10;47711.28;;;-141.97;95.55
7018;BME280;3549;42.162;24.726;2023-04-26T01:44:36;47809.31;;;-141.97;94.69
7018;BME280;3549;42.162;24.726;2023-04-26T01:47:01;47784.34;;;-141.97;94.62
7018;BME280;3549;42.162;24.726;2023-04-26T01:49:27;47684.38;;;-141.97;94.07
7018;BME280;3549;42.162;24.726;2023-04-26T01:51:53;47830.47;;;-141.97;94.06
7018;BME280;3549;42.162;24.726;2023-04-26T01:54:18;47613.25;;;-141.97;94.34
7018;BME280;3549;42.162;24.726;2023-04-26T01:56:44;47682.47;;;-141.97;95.48
7018;BME280;3549;42.162;24.726;2023-04-26T01:59:09;47669.00;;;-141.97;95.40
7018;BME280;3549;42.162;24.726;2023-04-26T02:01:35;47680.53;;;-141.97;95.62
7018;BME280;3549;42.162;24.726;2023-04-26T02:04:01;47665.16;;;-141.97;96.25
7018;BME280;3549;42.162;24.726;2023-04-26T02:06:27;47609.41;;;-141.97;95.76
7018;BME280;3549;42.162;24.726;2023-04-26T02:08:52;47665.16;;;-141.97;95.87
7018;BME280;3549;42.162;24.726;2023-04-26T02:11:18;47692.06;;;-141.97;95.72
7018;BME280;3549;42.162;24.726;2023-04-26T02:13:43;47686.31;;;-141.97;95.65
7018;BME280;3549;42.162;24.726;2023-04-26T02:16:09;47676.69;;;-141.97;95.60
7018;BME280;3549;42.162;24.726;2023-04-26T02:18:34;47688.22;;;-141.97;95.08
7018;BME280;3549;42.162;24.726;2023-04-26T02:21:00;47790.09;;;-141.97;95.11
7018;BME280;3549;42.162;24.726;2023-04-26T02:23:25;47676.69;;;-141.97;94.67
7018;BME280;3549;42.162;24.726;2023-04-26T02:25:51;47718.97;;;-141.97;94.98
7018;BME280;3549;42.162;24.726;2023-04-26T02:28:16;47695.91;;;-141.97;94.96
7018;BME280;3549;42.162;24.726;2023-04-26T02:30:42;47665.16;;;-141.97;93.54
7018;BME280;3549;42.162;24.726;2023-04-26T02:33:07;47638.25;;;-141.97;93.34
7018;BME280;3549;42.162;24.726;2023-04-26T02:35:34;47644.00;;;-141.97;93.28
7018;BME280;3549;42.162;24.726;2023-04-26T02:38:01;47717.06;;;-141.97;93.07
7018;BME280;3549;42.162;24.726;2023-04-26T02:40:27;47728.59;;;-141.97;93.09
7018;BME280;3549;42.162;24.726;2023-04-26T02:42:52;47670.91;;;-141.97;93.27
7018;BME280;3549;42.162;24.726;2023-04-26T02:45:17;47718.97;;;-141.97;93.36
7018;BME280;3549;42.162;24.726;2023-04-26T02:47:43;47672.84;;;-141.97;92.80
7018;BME280;3549;42.162;24.726;2023-04-26T02:50:08;47667.06;;;-141.97;92.60
7018;BME280;3549;42.162;24.726;2023-04-26T02:52:35;47757.41;;;-141.97;93.65
7018;BME280;3549;42.162;24.726;2023-04-26T02:55:01;47711.28;;;-141.97;93.18
7018;BME280;3549;42.162;24.726;2023-04-26T02:57:27;47674.78;;;-141.97;92.82
7018;BME280;3549;42.162;24.726;2023-04-26T02:59:53;47669.00;;;-141.97;92.00
7018;BME280;3549;42.162;24.726;2023-04-26T03:02:19;47753.56;;;-141.97;91.26
7018;BME280;3549;42.162;24.726;2023-04-26T03:04:45;47695.91;;;-141.97;90.66
7018;BME280;3549;42.162;24.726;2023-04-26T03:07:11;47718.97;;;-141.97;90.38
7018;BME280;3549;42.162;24.726;2023-04-26T03:09:36;47709.38;;;-141.97;90.10
7018;BME280;3549;42.162;24.726;2023-04-26T03:12:05;47709.38;;;-141.97;90.28
7018;BME280;3549;42.162;24.726;2023-04-26T03:14:31;47692.06;;;-141.97;90.43
7018;BME280;3549;42.162;24.726;2023-04-26T03:16:58;47784.34;;;-141.97;90.42
7018;BME280;3549;42.162;24.726;2023-04-26T03:19:23;47684.38;;;-141.97;90.55
7018;BME280;3549;42.162;24.726;2023-04-26T03:21:48;47718.97;;;-141.97;90.50
7018;BME280;3549;42.162;24.726;2023-04-26T03:24:14;47711.28;;;-141.97;90.41
7018;BME280;3549;42.162;24.726;2023-04-26T03:26:39;47690.16;;;-141.97;90.91
7018;BME280;3549;42.162;24.726;2023-04-26T03:29:05;47682.47;;;-141.97;90.91
7018;BME280;3549;42.162;24.726;2023-04-26T03:31:31;47644.00;;;-141.97;91.34
7018;BME280;3549;42.162;24.726;2023-04-26T03:33:57;47707.44;;;-141.97;91.33
7018;BME280;3549;42.162;24.726;2023-04-26T03:36:22;47720.91;;;-141.97;91.84
7018;BME280;3549;42.162;24.726;2023-04-26T03:38:47;47655.53;;;-141.97;91.74
7018;BME280;3549;42.162;24.726;2023-04-26T03:41:13;47688.22;;;-141.97;92.42
7018;BME280;3549;42.162;24.726;2023-04-26T03:43:38;47832.38;;;-141.97;92.36
7018;BME280;3549;42.162;24.726;2023-04-26T03:46:04;47720.91;;;-141.97;92.90
7018;BME280;3549;42.162;24.726;2023-04-26T03:48:29;47676.69;;;-141.97;93.60
7018;BME280;3549;42.162;24.726;2023-04-26T03:50:55;47720.91;;;-141.97;94.13
7018;BME280;3549;42.162;24.726;2023-04-26T03:53:20;47745.88;;;-141.97;94.20
7018;BME280;3549;42.162;24.726;2023-04-26T03:55:46;47644.00;;;-141.97;94.26
7018;BME280;3549;42.162;24.726;2023-04-26T03:58:11;47680.53;;;-141.97;94.59
7018;BME280;3549;42.162;24.726;2023-04-26T04:00:37;47832.38;;;-141.97;94.72
7018;BME280;3549;42.162;24.726;2023-04-26T04:03:03;47632.47;;;-141.97;94.93
7018;BME280;3549;42.162;24.726;2023-04-26T04:05:29;47563.28;;;-141.97;95.39
7018;BME280;3549;42.162;24.726;2023-04-26T04:07:54;47703.59;;;-141.97;96.35
7018;BME280;3549;42.162;24.726;2023-04-26T04:10:21;47634.41;;;-141.97;96.10
7018;BME280;3549;42.162;24.726;2023-04-26T04:12:47;47622.88;;;-141.97;95.77
7018;BME280;3549;42.162;24.726;2023-04-26T04:15:13;47669.00;;;-141.97;97.38
7018;BME280;3549;42.162;24.726;2023-04-26T04:17:38;47749.72;;;-141.97;96.87
7018;BME280;3549;42.162;24.726;2023-04-26T04:20:04;47801.63;;;-141.97;97.29
7018;BME280;3549;42.162;24.726;2023-04-26T04:22:31;47690.16;;;-141.97;96.93
7018;BME280;3549;42.162;24.726;2023-04-26T04:24:57;47567.13;;;-141.97;96.78
7018;BME280;3549;42.162;24.726;2023-04-26T04:27:27;47690.16;;;-141.97;96.63
7018;BME280;3549;42.162;24.726;2023-04-26T04:29:52;47540.22;;;-141.97;96.51
7018;BME280;3549;42.162;24.726;2023-04-26T04:32:20;47801.63;;;-141.97;96.41
7018;BME280;3549;42.162;24.726;2023-04-26T04:34:48;47553.69;;;-141.97;95.94
7018;BME280;3549;42.162;24.726;2023-04-26T04:37:13;47544.06;;;-141.97;95.22
7018;BME280;3549;42.162;24.726;2023-04-26T04:39:41;47605.56;;;-141.97;94.81
7018;BME280;3549;42.162;24.726;2023-04-26T04:42:06;47767.03;;;-141.97;94.50
7018;BME280;3549;42.162;24.726;2023-04-26T04:44:32;47524.84;;;-141.97;95.55
7018;BME280;3549;42.162;24.726;2023-04-26T04:46:58;47613.25;;;-141.97;95.61
7018;BME280;3549;42.162;24.726;2023-04-26T04:49:23;47653.63;;;-141.97;96.16
7018;BME280;3549;42.162;24.726;2023-04-26T04:51:49;47722.81;;;-141.97;95.65
7018;BME280;3549;42.162;24.726;2023-04-26T04:54:17;47711.28;;;-141.97;95.28
7018;BME280;3549;42.162;24.726;2023-04-26T04:56:43;47726.66;;;-141.97;94.41
7018;BME280;3549;42.162;24.726;2023-04-26T04:59:09;47718.97;;;-141.97;93.80
7018;BME280;3549;42.162;24.726;2023-04-26T05:01:35;47695.91;;;-141.97;92.27
7018;BME280;3549;42.162;24.726;2023-04-26T05:04:01;47717.06;;;-141.97;91.07
7018;BME280;3549;42.162;24.726;2023-04-26T05:06:27;47657.47;;;-141.97;89.88
7018;BME280;3549;42.162;24.726;2023-04-26T05:08:53;47707.44;;;-141.97;89.67
7018;BME280;3549;42.162;24.726;2023-04-26T05:11:19;47684.38;;;-141.97;88.51
7018;BME280;3549;42.162;24.726;2023-04-26T05:13:45;47672.84;;;-141.97;87.03
7018;BME280;3549;42.162;24.726;2023-04-26T05:16:11;47699.75;;;-141.97;84.02
7018;BME280;3549;42.162;24.726;2023-04-26T05:18:37;47692.06;;;-141.97;83.67
7018;BME280;3549;42.162;24.726;2023-04-26T05:21:02;47659.38;;;-141.97;82.44
7018;BME280;3549;42.162;24.726;2023-04-26T05:23:28;47757.41;;;-141.97;82.27
7018;BME280;3549;42.162;24.726;2023-04-26T05:25:54;47667.06;;;-141.97;81.07
7018;BME280;3549;42.162;24.726;2023-04-26T05:28:19;47726.66;;;-141.97;79.91
7018;BME280;3549;42.162;24.726;2023-04-26T05:30:45;47624.78;;;-141.97;78.39
7018;BME280;3549;42.162;24.726;2023-04-26T05:33:11;47692.06;;;-141.97;76.30
7018;BME280;3549;42.162;24.726;2023-04-26T05:35:36;47684.38;;;-141.97;75.98
7018;BME280;3549;42.162;24.726;2023-04-26T05:38:02;47690.16;;;-141.97;75.06
7018;BME280;3549;42.162;24.726;2023-04-26T05:40:28;47709.38;;;-141.97;75.15
7018;BME280;3549;42.162;24.726;2023-04-26T05:42:54;47684.38;;;-141.97;73.78
7018;BME280;3549;42.162;24.726;2023-04-26T05:45:19;47630.56;;;-141.97;72.76
7018;BME280;3549;42.162;24.726;2023-04-26T05:47:44;47711.28;;;-141.97;71.27
7018;BME280;3549;42.162;24.726;2023-04-26T05:50:11;47678.63;;;-141.97;71.16
7018;BME280;3549;42.162;24.726;2023-04-26T05:52:37;47718.97;;;-141.97;70.53
7018;BME280;3549;42.162;24.726;2023-04-26T05:55:02;47701.69;;;-141.97;69.76
7018;BME280;3549;42.162;24.726;2023-04-26T05:57:29;47676.69;;;-141.97;68.30
7018;BME280;3549;42.162;24.726;2023-04-26T05:59:54;47665.16;;;-141.97;68.07
7018;BME280;3549;42.162;24.726;2023-04-26T06:02:19;47695.91;;;-141.97;67.81
7018;BME280;3549;42.162;24.726;2023-04-26T06:04:45;47674.78;;;-141.97;66.59
7018;BME280;3549;42.162;24.726;2023-04-26T06:07:11;47649.78;;;-141.97;67.25
7018;BME280;3549;42.162;24.726;2023-04-26T06:09:36;47653.63;;;-141.97;66.96
7018;BME280;3549;42.162;24.726;2023-04-26T06:12:02;47670.91;;;-141.97;67.61
7018;BME280;3549;42.162;24.726;2023-04-26T06:14:28;47815.09;;;-141.97;66.07
7018;BME280;3549;42.162;24.726;2023-04-26T06:16:55;47599.81;;;-141.97;65.96
7018;BME280;3549;42.162;24.726;2023-04-26T06:19:20;47647.84;;;-141.97;66.99
7018;BME280;3549;42.162;24.726;2023-04-26T06:21:46;47669.00;;;-141.97;67.67
7018;BME280;3549;42.162;24.726;2023-04-26T06:24:12;47674.78;;;-141.97;68.74
7018;BME280;3549;42.162;24.726;2023-04-26T06:26:38;47684.38;;;-141.97;67.84
7018;BME280;3549;42.162;24.726;2023-04-26T06:29:03;47642.09;;;-141.97;67.37
7018;BME280;3549;42.162;24.726;2023-04-26T06:31:29;47659.38;;;-141.97;67.38
7018;BME280;3549;42.162;24.726;2023-04-26T06:33:54;47628.63;;;-141.97;66.74
7018;BME280;3549;42.162;24.726;2023-04-26T06:36:20;47722.81;;;-141.97;66.03
7018;BME280;3549;42.162;24.726;2023-04-26T06:38:45;47688.22;;;-141.97;66.54
7018;BME280;3549;42.162;24.726;2023-04-26T06:41:11;47784.34;;;-141.97;65.94
7018;BME280;3549;42.162;24.726;2023-04-26T06:43:36;47661.31;;;-141.97;66.26
7018;BME280;3549;42.162;24.726;2023-04-26T06:46:01;47686.31;;;-141.97;66.28
7018;BME280;3549;42.162;24.726;2023-04-26T06:48:27;47655.53;;;-141.97;66.71
7018;BME280;3549;42.162;24.726;2023-04-26T06:50:52;47682.47;;;-141.97;66.91
7018;BME280;3549;42.162;24.726;2023-04-26T06:53:18;47828.53;;;-141.97;67.68
7018;BME280;3549;42.162;24.726;2023-04-26T06:55:43;47749.72;;;-141.97;67.89
7018;BME280;3549;42.162;24.726;2023-04-26T06:58:09;47678.63;;;-141.97;68.99
7018;BME280;3549;42.162;24.726;2023-04-26T07:00:34;47692.06;;;-141.97;68.56
7018;BME280;3549;42.162;24.726;2023-04-26T07:03:00;47657.47;;;-141.97;67.84
7018;BME280;3549;42.162;24.726;2023-04-26T07:05:25;47665.16;;;-141.97;67.00
7018;BME280;3549;42.162;24.726;2023-04-26T07:07:50;47724.75;;;-141.97;66.37
7018;BME280;3549;42.162;24.726;2023-04-26T07:10:16;47676.69;;;-141.97;65.25
7018;BME280;3549;42.162;24.726;2023-04-26T07:12:41;47657.47;;;-141.97;63.66
7018;BME280;3549;42.162;24.726;2023-04-26T07:15:07;47676.69;;;-141.97;63.30
7018;BME280;3549;42.162;24.726;2023-04-26T07:17:33;47688.22;;;-141.97;64.17
7018;BME280;3549;42.162;24.726;2023-04-26T07:19:58;47665.16;;;-141.97;65.78
7018;BME280;3549;42.162;24.726;2023-04-26T07:22:24;47547.91;;;-141.97;65.28
7018;BME280;3549;42.162;24.726;2023-04-26T07:24:49;47665.16;;;-141.97;64.17
7018;BME280;3549;42.162;24.726;2023-04-26T07:27:15;47778.56;;;-141.97;64.31
7018;BME280;3549;42.162;24.726;2023-04-26T07:29:41;47834.31;;;-141.97;66.10
7018;BME280;3549;42.162;24.726;2023-04-26T07:32:06;47547.91;;;-141.97;66.45
7018;BME280;3549;42.162;24.726;2023-04-26T07:34:32;47776.63;;;-141.97;64.34
7018;BME280;3549;42.162;24.726;2023-04-26T07:36:58;47607.50;;;-141.97;64.49
7018;BME280;3549;42.162;24.726;2023-04-26T07:39:23;47640.16;;;-141.97;63.02
7018;BME280;3549;42.162;24.726;2023-04-26T07:41:50;47709.38;;;-141.97;62.48
7018;BME280;3549;42.162;24.726;2023-04-26T07:44:15;47680.53;;;-141.97;61.73
7018;BME280;3549;42.162;24.726;2023-04-26T07:46:41;47780.47;;;-141.97;62.12
7018;BME280;3549;42.162;24.726;2023-04-26T07:49:06;47695.91;;;-141.97;61.71
7018;BME280;3549;42.162;24.726;2023-04-26T07:51:31;47674.78;;;-141.97;61.97
7018;BME280;3549;42.162;24.726;2023-04-26T07:53:57;47711.28;;;-141.97;62.69
7018;BME280;3549;42.162;24.726;2023-04-26T07:56:23;47569.06;;;-141.97;63.65
7018;BME280;3549;42.162;24.726;2023-04-26T07:58:48;47682.47;;;-141.97;63.82
7018;BME280;3549;42.162;24.726;2023-04-26T08:01:14;47653.63;;;-141.97;63.73
7018;BME280;3549;42.162;24.726;2023-04-26T08:03:40;47788.19;;;-141.97;63.21
7018;BME280;3549;42.162;24.726;2023-04-26T08:06:05;47669.00;;;-141.97;62.67
7018;BME280;3549;42.162;24.726;2023-04-26T08:08:33;47705.53;;;-141.97;61.74
7018;BME280;3549;42.162;24.726;2023-04-26T08:10:59;47565.22;;;-141.97;60.92
7018;BME280;3549;42.162;24.726;2023-04-26T08:13:25;47688.22;;;-141.97;59.40
7018;BME280;3549;42.162;24.726;2023-04-26T08:15:50;47638.25;;;-141.97;60.30
7018;BME280;3549;42.162;24.726;2023-04-26T08:18:16;47653.63;;;-141.97;57.83
7018;BME280;3549;42.162;24.726;2023-04-26T08:20:44;47615.19;;;-141.97;55.93
7018;BME280;3549;42.162;24.726;2023-04-26T08:23:10;47630.56;;;-141.97;54.46
7018;BME280;3549;42.162;24.726;2023-04-26T08:25:35;47607.50;;;-141.97;54.27
7018;BME280;3549;42.162;24.726;2023-04-26T08:28:01;47667.06;;;-141.97;50.95
7018;BME280;3549;42.162;24.726;2023-04-26T08:30:29;47620.94;;;-141.97;48.82
7018;BME280;3549;42.162;24.726;2023-04-26T08:32:54;47607.50;;;-141.97;48.09
7018;BME280;3549;42.162;24.726;2023-04-26T08:35:20;47663.22;;;-141.97;48.64
7018;BME280;3549;42.162;24.726;2023-04-26T08:37:46;47647.84;;;-141.97;48.33
7018;BME280;3549;42.162;24.726;2023-04-26T08:40:12;47540.22;;;-141.97;48.47
7018;BME280;3549;42.162;24.726;2023-04-26T08:42:40;47582.50;;;-141.97;48.78
7018;BME280;3549;42.162;24.726;2023-04-26T08:45:09;47638.25;;;-141.97;48.09
7018;BME280;3549;42.162;24.726;2023-04-26T08:47:44;47603.66;;;-141.97;49.95
7018;BME280;3549;42.162;24.726;2023-04-26T08:50:13;47615.19;;;-141.97;49.68
7018;BME280;3549;42.162;24.726;2023-04-26T08:52:40;47626.72;;;-141.97;48.77
7018;BME280;3549;42.162;24.726;2023-04-26T08:55:07;47586.34;;;-141.97;49.71
7018;BME280;3549;42.162;24.726;2023-04-26T08:57:34;47649.78;;;-141.97;48.67
7018;BME280;3549;42.162;24.726;2023-04-26T09:00:01;47759.34;;;-141.97;48.16
7018;BME280;3549;42.162;24.726;2023-04-26T09:02:29;47615.19;;;-141.97;48.01
7018;BME280;3549;42.162;24.726;2023-04-26T09:04:55;47780.47;;;-141.97;46.39
7018;BME280;3549;42.162;24.726;2023-04-26T09:10:18;47736.28;;;-141.97;45.27
7018;BME280;3549;42.162;24.726;2023-04-26T09:12:45;47636.31;;;-141.97;43.47
7018;BME280;3549;42.162;24.726;2023-04-26T09:15:13;47582.50;;;-141.97;42.39
7018;BME280;3549;42.162;24.726;2023-04-26T09:17:39;47613.25;;;-141.97;42.13
7018;BME280;3549;42.162;24.726;2023-04-26T09:20:26;47630.56;;;-141.97;42.76
7018;BME280;3549;42.162;24.726;2023-04-26T09:23:12;47595.97;;;-141.97;41.98
7018;BME280;3549;42.162;24.726;2023-04-26T09:25:37;47561.38;;;-141.97;40.87
7018;BME280;3549;42.162;24.726;2023-04-26T09:28:03;47597.88;;;-141.97;40.60
7018;BME280;3549;42.162;24.726;2023-04-26T09:30:29;47619.03;;;-141.97;41.84
7018;BME280;3549;42.162;24.726;2023-04-26T09:32:59;47588.28;;;-141.97;41.97
7018;BME280;3549;42.162;24.726;2023-04-26T09:35:32;47619.03;;;-141.97;43.61
7018;BME280;3549;42.162;24.726;2023-04-26T09:38:06;47630.56;;;-141.97;44.30
7018;BME280;3549;42.162;24.726;2023-04-26T09:40:34;47630.56;;;-141.97;44.58
7018;BME280;3549;42.162;24.726;2023-04-26T09:43:06;47617.09;;;-141.97;44.41
7018;BME280;3549;42.162;24.726;2023-04-26T09:45:33;47642.09;;;-141.97;44.56
7018;BME280;3549;42.162;24.726;2023-04-26T09:50:42;47620.94;;;-141.97;44.68
7018;BME280;3549;42.162;24.726;2023-04-26T09:53:24;47763.19;;;-141.97;45.32
7018;BME280;3549;42.162;24.726;2023-04-26T09:55:51;47599.81;;;-141.97;44.92
7018;BME280;3549;42.162;24.726;2023-04-26T09:58:18;47607.50;;;-141.97;45.19
7018;BME280;3549;42.162;24.726;2023-04-26T10:00:45;47722.81;;;-141.97;45.20
7018;BME280;3549;42.162;24.726;2023-04-26T10:03:14;47611.34;;;-141.97;43.86
7018;BME280;3549;42.162;24.726;2023-04-26T10:05:40;47599.81;;;-141.97;44.07
7018;BME280;3549;42.162;24.726;2023-04-26T10:08:06;47757.41;;;-141.97;43.05
7018;BME280;3549;42.162;24.726;2023-04-26T10:10:32;47572.91;;;-141.97;41.64
7018;BME280;3549;42.162;24.726;2023-04-26T10:12:58;47626.72;;;-141.97;42.50
7018;BME280;3549;42.162;24.726;2023-04-26T10:15:25;47592.13;;;-141.97;41.13
7018;BME280;3549;42.162;24.726;2023-04-26T10:17:50;47565.22;;;-141.97;39.65
7018;BME280;3549;42.162;24.726;2023-04-26T10:20:17;47572.91;;;-141.97;39.36
7018;BME280;3549;42.162;24.726;2023-04-26T10:22:50;47572.91;;;-141.97;39.43
7018;BME280;3549;42.162;24.726;2023-04-26T10:25:17;47759.34;;;-141.97;39.83
7018;BME280;3549;42.162;24.726;2023-04-26T10:30:12;47594.03;;;-141.97;42.05
7018;BME280;3549;42.162;24.726;2023-04-26T10:33:10;47599.81;;;-141.97;43.09
7018;BME280;3549;42.162;24.726;2023-04-26T10:35:58;47622.88;;;-141.97;44.64
7018;BME280;3549;42.162;24.726;2023-04-26T10:38:24;47599.81;;;-141.97;45.38
7018;BME280;3549;42.162;24.726;2023-04-26T10:40:50;47603.66;;;-141.97;45.84
7018;BME280;3549;42.162;24.726;2023-04-26T10:45:44;47599.81;;;-141.97;47.08
7018;BME280;3549;42.162;24.726;2023-04-26T10:59:13;47653.63;;;-141.97;48.43
7018;BME280;3549;42.162;24.726;2023-04-26T11:01:40;47657.47;;;-141.97;47.80
7018;BME280;3549;42.162;24.726;2023-04-26T11:04:07;47651.69;;;-141.97;48.03
7018;BME280;3549;42.162;24.726;2023-04-26T11:06:52;47636.31;;;-141.97;48.64
7018;BME280;3549;42.162;24.726;2023-04-26T11:12:11;47828.53;;;-141.97;48.41
7018;BME280;3549;42.162;24.726;2023-04-26T11:14:38;47619.03;;;-141.97;49.19
7018;BME280;3549;42.162;24.726;2023-04-26T11:17:10;47659.38;;;-141.97;49.82
7018;BME280;3549;42.162;24.726;2023-04-26T11:19:36;47645.94;;;-141.97;48.53
7018;BME280;3549;42.162;24.726;2023-04-26T11:22:04;47619.03;;;-141.97;49.02
7018;BME280;3549;42.162;24.726;2023-04-26T11:24:31;47607.50;;;-141.97;48.36
7018;BME280;3549;42.162;24.726;2023-04-26T11:26:58;47634.41;;;-141.97;48.12
7018;BME280;3549;42.162;24.726;2023-04-26T11:29:24;47624.78;;;-141.97;47.50
7018;BME280;3549;42.162;24.726;2023-04-26T11:31:55;47653.63;;;-141.97;47.55
7018;BME280;3549;42.162;24.726;2023-04-26T11:34:40;47636.31;;;-141.97;47.21
7018;BME280;3549;42.162;24.726;2023-04-26T11:37:07;47822.78;;;-141.97;47.75
7018;BME280;3549;42.162;24.726;2023-04-26T11:39:36;47661.31;;;-141.97;47.72
7018;BME280;3549;42.162;24.726;2023-04-26T11:42:09;47620.94;;;-141.97;46.52
7018;BME280;3549;42.162;24.726;2023-04-26T11:44:36;47644.00;;;-141.97;46.53
7018;BME280;3549;42.162;24.726;2023-04-26T11:47:02;47749.72;;;-141.97;47.20
7018;BME280;3549;42.162;24.726;2023-04-26T11:49:29;47734.34;;;-141.97;47.43
7018;BME280;3549;42.162;24.726;2023-04-26T11:51:55;47617.09;;;-141.97;48.04
7018;BME280;3549;42.162;24.726;2023-04-26T11:54:31;47544.06;;;-141.97;47.37
7018;BME280;3549;42.162;24.726;2023-04-26T11:56:58;47715.13;;;-141.97;46.92
7018;BME280;3549;42.162;24.726;2023-04-26T11:59:25;47793.94;;;-141.97;47.40
7018;BME280;3549;42.162;24.726;2023-04-26T12:01:50;47632.47;;;-141.97;47.64
7018;BME280;3549;42.162;24.726;2023-04-26T12:04:25;47611.34;;;-141.97;47.94
7018;BME280;3549;42.162;24.726;2023-04-26T12:06:52;47694.00;;;-141.97;49.25
7018;BME280;3549;42.162;24.726;2023-04-26T12:09:22;47661.31;;;-141.97;51.92
7018;BME280;3549;42.162;24.726;2023-04-26T12:11:52;47630.56;;;-141.97;52.56
7018;BME280;3549;42.162;24.726;2023-04-26T12:14:18;47653.63;;;-141.97;51.97
7018;BME280;3549;42.162;24.726;2023-04-26T12:16:45;47801.63;;;-141.97;51.80
7018;BME280;3549;42.162;24.726;2023-04-26T12:19:10;47657.47;;;-141.97;51.74
7018;BME280;3549;42.162;24.726;2023-04-26T12:21:41;47603.66;;;-141.97;52.23
7018;BME280;3549;42.162;24.726;2023-04-26T12:24:22;47547.91;;;-141.97;51.47
7018;BME280;3549;42.162;24.726;2023-04-26T12:26:47;47599.81;;;-141.97;50.98
7018;BME280;3549;42.162;24.726;2023-04-26T12:29:13;47611.34;;;-141.97;50.04
7018;BME280;3549;42.162;24.726;2023-04-26T12:31:38;47569.06;;;-141.97;47.99
7018;BME280;3549;42.162;24.726;2023-04-26T12:34:04;47615.19;;;-141.97;47.56
7018;BME280;3549;42.162;24.726;2023-04-26T12:36:29;47672.84;;;-141.97;48.41
7018;BME280;3549;42.162;24.726;2023-04-26T12:38:55;47576.75;;;-141.97;49.74
7018;BME280;3549;42.162;24.726;2023-04-26T12:41:22;47817.00;;;-141.97;49.74
7018;BME280;3549;42.162;24.726;2023-04-26T12:43:47;47655.53;;;-141.97;48.79
7018;BME280;3549;42.162;24.726;2023-04-26T12:46:14;47659.38;;;-141.97;50.59
7018;BME280;3549;42.162;24.726;2023-04-26T12:48:39;47644.00;;;-141.97;51.93
7018;BME280;3549;42.162;24.726;2023-04-26T12:51:05;47592.13;;;-141.97;52.33
7018;BME280;3549;42.162;24.726;2023-04-26T12:53:31;47682.47;;;-141.97;52.63
7018;BME280;3549;42.162;24.726;2023-04-26T12:55:56;47692.06;;;-141.97;53.97
7018;BME280;3549;42.162;24.726;2023-04-26T12:58:21;47661.31;;;-141.97;49.96
7018;BME280;3549;42.162;24.726;2023-04-26T13:00:47;47695.91;;;-141.97;50.00
7018;BME280;3549;42.162;24.726;2023-04-26T13:03:12;47670.91;;;-141.97;48.24
7018;BME280;3549;42.162;24.726;2023-04-26T13:05:39;47642.09;;;-141.97;48.50
7018;BME280;3549;42.162;24.726;2023-04-26T13:08:05;47653.63;;;-141.97;47.49
7018;BME280;3549;42.162;24.726;2023-04-26T13:10:30;47659.38;;;-141.97;47.99
7018;BME280;3549;42.162;24.726;2023-04-26T13:12:57;47653.63;;;-141.97;46.83